Time;durP1;ratioP1;P1;durP2;ratioP2;P2;SDS_P1;SDS_P2;PMS_P1;PMS_P2;Temp;Humidity;BMP_temperature;BMP_pressure;BME280_temperature;BME280_humidity;BME280_pressure;Samples;Min_cycle;Max_cycle;Signal;HPM_P1;HPM_P2
2022/09/22 10:16:54;;;;;;;10.32;2.05;;;17.10;85.90;;;;;;6072625;23;20033;-70
2022/09/22 10:19:25;;;;;;;7.50;1.73;;;17.10;86.10;;;;;;6063358;23;20094;-70
2022/09/22 10:21:54;;;;;;;11.45;2.20;;;17.20;86.10;;;;;;6037599;23;20026;-70
2022/09/22 10:24:32;;;;;;;14.20;2.47;;;17.20;86.30;;;;;;6062194;23;20109;-71
2022/09/22 10:26:59;;;;;;;8.38;2.28;;;17.10;86.40;;;;;;6063802;23;20010;-71
2022/09/22 10:29:26;;;;;;;9.13;2.30;;;17.10;86.80;;;;;;6063942;23;20078;-72
2022/09/22 10:32:13;;;;;;;13.23;2.45;;;17.10;86.90;;;;;;6063406;23;20011;-69
2022/09/22 10:34:45;;;;;;;11.07;2.30;;;17.00;87.00;;;;;;6038449;23;20033;-70
2022/09/22 10:37:15;;;;;;;11.52;2.58;;;17.10;87.20;;;;;;6015873;23;20007;-68
2022/09/22 10:39:52;;;;;;;13.70;2.42;;;17.00;87.50;;;;;;6014981;23;20533;-68
2022/09/22 10:42:33;;;;;;;9.63;2.70;;;17.00;87.50;;;;;;6038263;23;20011;-68
2022/09/22 10:45:06;;;;;;;12.68;3.13;;;17.00;87.80;;;;;;6039686;23;20078;-72
2022/09/22 10:47:45;;;;;;;10.82;2.47;;;17.00;88.30;;;;;;6038260;23;20085;-69
2022/09/22 10:50:40;;;;;;;8.80;2.50;;;16.90;89.50;;;;;;6063448;23;20021;-70
2022/09/22 10:53:30;;;;;;;8.98;2.65;;;16.70;90.80;;;;;;6063169;23;20015;-70
2022/09/22 10:56:20;;;;;;;4.95;1.73;;;16.60;91.50;;;;;;6041121;23;20011;-69
2022/09/22 10:58:50;;;;;;;8.65;2.20;;;16.40;92.10;;;;;;6062685;23;20021;-69
2022/09/22 11:01:35;;;;;;;7.20;1.80;;;16.30;92.40;;;;;;6063434;23;20060;-69
2022/09/22 11:04:09;;;;;;;9.05;2.08;;;16.30;92.70;;;;;;6060512;23;20014;-68
2022/09/22 11:12:43;;;;;;;9.25;1.90;;;16.20;93.20;;;;;;6022379;23;20136;-71
2022/09/22 11:57:10;;;;;;;8.95;2.08;;;15.90;93.90;;;;;;6068264;23;20078;-71
2022/09/22 11:59:44;;;;;;;10.65;2.20;;;15.90;93.90;;;;;;6015556;23;20378;-75
2022/09/22 12:02:19;;;;;;;6.57;2.00;;;15.80;94.00;;;;;;6037387;23;19999;-71
2022/09/22 12:04:55;;;;;;;9.32;2.00;;;15.90;94.10;;;;;;6059870;23;20007;-71
2022/09/22 12:07:53;;;;;;;10.68;2.05;;;15.90;94.20;;;;;;6039113;23;20003;-71
2022/09/22 12:10:31;;;;;;;10.63;1.88;;;15.80;93.90;;;;;;6041459;23;20075;-72
2022/09/22 12:12:59;;;;;;;6.80;1.70;;;15.80;94.20;;;;;;6039670;23;20019;-71
2022/09/22 12:15:28;;;;;;;9.52;2.20;;;15.90;94.40;;;;;;6038267;23;20011;-72
2022/09/22 12:18:11;;;;;;;11.65;2.08;;;15.80;94.40;;;;;;6037361;23;20025;-71
2022/09/22 12:21:01;;;;;;;7.30;2.13;;;15.90;94.30;;;;;;6012802;23;20346;-70
2022/09/22 12:23:41;;;;;;;6.40;1.70;;;15.90;94.50;;;;;;6062470;23;20287;-70
2022/09/22 12:26:12;;;;;;;8.38;1.92;;;15.90;94.60;;;;;;6038378;23;20003;-71
2022/09/22 12:28:48;;;;;;;9.45;2.30;;;16.00;94.60;;;;;;6013559;23;20525;-71
2022/09/22 12:31:17;;;;;;;7.63;2.08;;;16.00;94.60;;;;;;6015197;23;20038;-72
2022/09/22 12:33:51;;;;;;;10.10;2.33;;;16.00;94.60;;;;;;6036953;23;20018;-71
2022/09/22 12:36:38;;;;;;;6.70;1.75;;;16.00;94.60;;;;;;6038612;23;20086;-70
2022/09/22 12:39:18;;;;;;;8.98;2.10;;;16.00;94.60;;;;;;6064212;23;20077;-71
2022/09/22 12:41:51;;;;;;;10.57;2.00;;;16.10;94.80;;;;;;6065087;23;20082;-73
2022/09/22 12:44:23;;;;;;;6.30;1.90;;;16.10;94.60;;;;;;6015907;23;20011;-72
2022/09/22 12:46:51;;;;;;;8.38;1.92;;;16.10;94.50;;;;;;6040305;23;20070;-72
2022/09/22 12:49:21;;;;;;;10.05;2.40;;;16.10;94.50;;;;;;6040606;23;20390;-72
2022/09/22 12:51:49;;;;;;;8.82;2.22;;;16.10;94.50;;;;;;6017622;23;20098;-72
2022/09/22 12:54:22;;;;;;;10.02;2.38;;;16.10;94.60;;;;;;6017721;23;20042;-71
2022/09/22 12:56:56;;;;;;;8.20;1.90;;;16.10;94.60;;;;;;6065987;23;20034;-71
2022/09/22 12:59:38;;;;;;;11.70;2.20;;;16.00;94.60;;;;;;6065847;23;20003;-71
2022/09/22 13:02:14;;;;;;;9.93;2.13;;;16.10;94.60;;;;;;6064867;23;20007;-71
2022/09/22 13:05:03;;;;;;;10.05;2.22;;;16.10;94.70;;;;;;6066032;23;20339;-71
2022/09/22 13:07:37;;;;;;;7.82;2.00;;;16.10;94.60;;;;;;6044862;23;20011;-71
2022/09/22 13:10:22;;;;;;;6.90;1.80;;;16.00;94.60;;;;;;6065521;23;20007;-71
2022/09/22 13:13:11;;;;;;;10.35;2.13;;;16.00;94.70;;;;;;6065623;23;20018;-71
2022/09/22 13:15:50;;;;;;;7.05;2.00;;;16.00;94.70;;;;;;6065467;23;20026;-71
2022/09/22 13:18:36;;;;;;;5.70;1.77;;;16.00;94.70;;;;;;6065591;23;20010;-71
2022/09/22 13:21:21;;;;;;;7.07;2.10;;;16.00;94.80;;;;;;6063476;23;20003;-72
2022/09/22 13:23:55;;;;;;;8.43;2.03;;;16.00;94.90;;;;;;6064991;23;20050;-72
2022/09/22 13:26:40;;;;;;;9.15;2.00;;;16.00;94.90;;;;;;6065655;23;20090;-71
2022/09/22 13:29:18;;;;;;;6.22;1.90;;;16.00;94.90;;;;;;6039537;23;20113;-71
2022/09/22 13:31:53;;;;;;;5.75;1.88;;;16.00;95.00;;;;;;6064252;23;20427;-71
2022/09/22 13:34:34;;;;;;;7.80;2.53;;;16.00;95.00;;;;;;6038987;23;20024;-72
2022/09/22 13:37:12;;;;;;;7.88;2.13;;;16.00;94.90;;;;;;6017653;23;20022;-71
2022/09/22 13:39:50;;;;;;;8.38;1.98;;;16.00;95.00;;;;;;6020308;23;20062;-71
2022/09/22 13:42:21;;;;;;;10.40;2.35;;;16.00;95.20;;;;;;6042075;23;20042;-72
2022/09/22 13:45:06;;;;;;;7.15;2.28;;;16.00;95.20;;;;;;6042702;23;20003;-72
2022/09/22 13:47:34;;;;;;;6.28;2.38;;;16.00;95.20;;;;;;6043138;23;20332;-73
2022/09/22 13:50:10;;;;;;;10.32;2.50;;;16.00;95.20;;;;;;6016846;23;20011;-71
2022/09/22 13:52:37;;;;;;;13.27;2.60;;;16.00;95.20;;;;;;6041935;23;20006;-72
2022/09/22 13:55:09;;;;;;;10.05;3.08;;;16.00;95.20;;;;;;6040453;23;20017;-72
2022/09/22 13:57:36;;;;;;;9.95;2.47;;;16.00;95.20;;;;;;6063062;23;20027;-71
2022/09/22 14:00:05;;;;;;;8.32;2.55;;;16.00;95.20;;;;;;6042292;23;20002;-71
2022/09/22 14:02:32;;;;;;;7.53;2.30;;;16.00;95.20;;;;;;6066288;23;20129;-71
2022/09/22 14:05:15;;;;;;;6.95;2.28;;;15.90;95.10;;;;;;6018254;23;20003;-71
2022/09/22 14:07:42;;;;;;;5.32;2.38;;;15.90;95.30;;;;;;6044570;23;20082;-71
2022/09/22 14:10:14;;;;;;;4.80;2.13;;;15.90;95.20;;;;;;6041522;23;20002;-71
2022/09/22 14:12:41;;;;;;;6.50;2.28;;;16.00;95.30;;;;;;6062891;23;20082;-72
2022/09/22 14:15:42;;;;;;;6.13;2.17;;;16.00;95.20;;;;;;6063641;23;20031;-71
2022/09/22 14:18:29;;;;;;;7.70;2.15;;;15.90;95.20;;;;;;6067137;23;20402;-71
2022/09/22 14:20:57;;;;;;;8.82;2.35;;;15.90;95.10;;;;;;6067222;23;20011;-71
2022/09/22 14:23:31;;;;;;;9.75;2.90;;;15.90;95.20;;;;;;6064195;23;20891;-71
2022/09/22 14:26:03;;;;;;;5.95;2.10;;;15.90;95.20;;;;;;6064620;23;20367;-72
2022/09/22 14:28:33;;;;;;;8.52;2.35;;;15.80;95.20;;;;;;6039911;23;20011;-71
2022/09/22 14:31:00;;;;;;;6.70;2.50;;;15.90;95.30;;;;;;6064903;23;20006;-72
2022/09/22 14:33:32;;;;;;;11.73;2.28;;;15.90;95.30;;;;;;6041073;23;20451;-72
2022/09/22 14:36:04;;;;;;;7.82;2.10;;;15.80;95.20;;;;;;6065011;23;20003;-72
2022/09/22 14:38:38;;;;;;;6.00;2.45;;;15.90;95.20;;;;;;6041555;23;20037;-71
2022/09/22 14:41:21;;;;;;;9.52;2.45;;;15.80;95.20;;;;;;6065754;23;20007;-72
2022/09/22 14:43:49;;;;;;;5.72;2.08;;;15.80;95.30;;;;;;6065410;23;20482;-71
2022/09/22 14:46:42;;;;;;;6.82;2.05;;;15.80;95.30;;;;;;6063527;23;20482;-72
2022/09/22 14:49:41;;;;;;;6.63;2.20;;;15.90;95.30;;;;;;6066099;23;20335;-72
2022/09/22 14:52:30;;;;;;;11.38;2.80;;;15.80;95.20;;;;;;6064734;23;20011;-71
2022/09/22 14:54:59;;;;;;;8.57;2.40;;;15.80;95.20;;;;;;6065368;23;20109;-72
2022/09/22 14:57:26;;;;;;;8.70;2.58;;;15.90;95.20;;;;;;6041285;23;20023;-72
2022/09/22 15:02:48;;;;;;;4.55;2.17;;;15.80;95.30;;;;;;6045779;23;20018;-71
2022/09/22 15:05:36;;;;;;;9.63;2.30;;;15.80;95.40;;;;;;6065261;23;20007;-71
2022/09/22 15:08:04;;;;;;;11.48;2.90;;;15.80;95.40;;;;;;6065366;23;20419;-71
2022/09/22 15:10:33;;;;;;;10.27;2.50;;;15.80;95.50;;;;;;6063875;23;20037;-71
2022/09/22 15:13:28;;;;;;;7.13;2.42;;;15.80;95.50;;;;;;6066700;23;20022;-71
2022/09/22 15:15:56;;;;;;;7.45;2.30;;;15.80;95.50;;;;;;6066257;23;20316;-72
2022/09/22 15:18:23;;;;;;;13.50;2.25;;;15.80;95.60;;;;;;6066220;23;20034;-71
2022/09/22 15:20:54;;;;;;;5.10;2.35;;;15.80;95.60;;;;;;6065908;23;20059;-72
2022/09/22 15:23:25;;;;;;;7.88;2.22;;;15.80;95.60;;;;;;6066021;23;20058;-72
2022/09/22 15:25:53;;;;;;;4.40;2.10;;;15.70;95.60;;;;;;6065397;23;20014;-71
2022/09/22 15:28:22;;;;;;;7.65;2.25;;;15.70;95.60;;;;;;6063661;23;20017;-72
2022/09/22 15:30:50;;;;;;;9.17;2.80;;;15.70;95.60;;;;;;6065632;23;20074;-71
2022/09/22 15:33:18;;;;;;;7.97;2.67;;;15.80;95.70;;;;;;6067106;23;20010;-71
2022/09/22 15:36:00;;;;;;;5.07;2.20;;;15.70;95.70;;;;;;6066546;23;20054;-71
2022/09/22 15:38:31;;;;;;;10.23;3.03;;;15.80;95.80;;;;;;6064428;23;20006;-72
2022/09/22 15:40:59;;;;;;;10.25;2.72;;;15.80;95.90;;;;;;6063435;23;20007;-71
2022/09/22 15:43:29;;;;;;;8.45;2.90;;;15.80;95.80;;;;;;6065533;23;20007;-71
2022/09/22 15:46:02;;;;;;;6.38;2.90;;;15.80;95.70;;;;;;6065980;23;20331;-72
2022/09/22 15:48:31;;;;;;;8.85;2.58;;;15.80;95.70;;;;;;6064694;23;20003;-72
2022/09/22 15:50:59;;;;;;;10.43;2.83;;;15.80;95.80;;;;;;6062309;23;20007;-71
2022/09/22 15:53:29;;;;;;;8.10;3.20;;;15.80;95.70;;;;;;6063822;23;20049;-71
2022/09/22 15:55:58;;;;;;;8.15;2.47;;;15.80;95.60;;;;;;6066072;23;20022;-72
2022/09/22 15:58:25;;;;;;;9.80;2.70;;;15.70;95.70;;;;;;6066067;23;20304;-72
2022/09/22 16:00:52;;;;;;;7.50;2.55;;;15.70;95.70;;;;;;6040951;23;20025;-72
2022/09/22 16:03:23;;;;;;;8.35;3.15;;;15.80;95.70;;;;;;6065682;23;20014;-71
2022/09/22 16:06:11;;;;;;;10.35;2.70;;;15.70;95.70;;;;;;6040503;23;20082;-72
2022/09/22 16:08:43;;;;;;;7.07;2.70;;;15.70;95.80;;;;;;6040781;23;20027;-71
2022/09/22 16:11:18;;;;;;;10.38;2.80;;;15.70;95.70;;;;;;6065199;23;20114;-72
2022/09/22 16:13:47;;;;;;;8.15;2.80;;;15.70;95.70;;;;;;6065024;23;20019;-71
2022/09/22 16:16:16;;;;;;;9.70;2.83;;;15.70;95.80;;;;;;6041514;23;20083;-71
2022/09/22 16:18:44;;;;;;;7.45;3.10;;;15.70;95.90;;;;;;6065565;23;20038;-71
2022/09/22 16:21:21;;;;;;;8.63;3.00;;;15.80;95.90;;;;;;6064696;23;20030;-72
2022/09/22 16:23:49;;;;;;;7.82;2.85;;;15.70;95.90;;;;;;6061844;23;20015;-71
2022/09/22 16:26:16;;;;;;;7.72;2.70;;;15.70;95.90;;;;;;6063972;23;20003;-71
2022/09/22 16:28:43;;;;;;;9.25;3.28;;;15.70;96.00;;;;;;6065221;23;20013;-71
2022/09/22 16:31:10;;;;;;;8.55;2.78;;;15.80;96.10;;;;;;6040327;23;19999;-71
2022/09/22 16:33:38;;;;;;;9.88;3.42;;;15.80;96.00;;;;;;6064421;23;20023;-72
2022/09/22 16:36:05;;;;;;;7.50;3.10;;;15.80;96.10;;;;;;6065902;23;19999;-71
2022/09/22 16:38:33;;;;;;;7.15;2.50;;;15.80;96.00;;;;;;6065389;23;20446;-72
2022/09/22 16:41:17;;;;;;;13.68;3.35;;;15.80;96.10;;;;;;6040220;23;20014;-72
2022/09/22 16:43:44;;;;;;;10.65;2.92;;;15.80;96.00;;;;;;6042716;23;20066;-71
2022/09/22 16:46:27;;;;;;;8.57;2.78;;;15.80;96.10;;;;;;6065634;23;20014;-71
2022/09/22 16:48:56;;;;;;;13.57;3.28;;;15.80;96.10;;;;;;6044035;23;20003;-71
2022/09/22 16:51:23;;;;;;;14.75;2.88;;;15.80;96.20;;;;;;6066112;23;20037;-71
2022/09/22 16:53:51;;;;;;;9.35;2.15;;;15.70;96.10;;;;;;6039605;23;20014;-71
2022/09/22 16:56:29;;;;;;;7.75;2.70;;;15.70;96.10;;;;;;6065404;23;20026;-71
2022/09/22 16:59:00;;;;;;;8.95;2.30;;;15.70;96.20;;;;;;6064938;23;20082;-71
2022/09/22 17:01:27;;;;;;;8.40;1.95;;;15.70;96.10;;;;;;6065446;23;20439;-71
2022/09/22 17:03:54;;;;;;;9.55;2.38;;;15.70;96.10;;;;;;6065244;23;20002;-71
2022/09/22 17:06:23;;;;;;;9.35;2.22;;;15.70;96.20;;;;;;6064352;23;20011;-71
2022/09/22 17:08:51;;;;;;;10.65;2.13;;;15.70;96.20;;;;;;6040010;23;20449;-71
2022/09/22 17:11:19;;;;;;;11.70;2.30;;;15.60;96.10;;;;;;6065618;23;20007;-71
2022/09/22 17:13:49;;;;;;;11.68;2.17;;;15.70;96.10;;;;;;6040657;23;20022;-71
2022/09/22 17:16:28;;;;;;;7.10;2.22;;;15.70;96.20;;;;;;6065915;23;20111;-71
2022/09/22 17:18:58;;;;;;;10.30;2.40;;;15.70;96.20;;;;;;6066138;23;20086;-71
2022/09/22 17:21:26;;;;;;;9.60;2.00;;;15.70;96.20;;;;;;6065670;23;20346;-71
2022/09/22 17:24:04;;;;;;;9.95;2.65;;;15.70;96.20;;;;;;6065219;23;20021;-71
2022/09/22 17:26:46;;;;;;;6.80;1.90;;;15.70;96.10;;;;;;6064862;23;20022;-71
2022/09/22 17:29:26;;;;;;;8.35;2.10;;;15.70;96.20;;;;;;6041902;23;20057;-72
2022/09/22 17:31:58;;;;;;;;;;;15.70;96.20;;;;;;6066494;23;20006;-72
2022/09/22 17:34:27;;;;;;;9.75;2.17;;;15.70;96.20;;;;;;6064959;23;19948;-72
2022/09/22 17:36:54;;;;;;;8.50;2.08;;;15.70;96.20;;;;;;6065666;23;20446;-72
2022/09/22 17:39:23;;;;;;;10.50;2.20;;;15.70;96.20;;;;;;6065308;23;20007;-72
2022/09/22 17:41:50;;;;;;;10.95;2.33;;;15.70;96.30;;;;;;6039436;23;20782;-71
2022/09/22 17:44:19;;;;;;;10.35;2.30;;;15.70;96.30;;;;;;6065692;23;20090;-72
2022/09/22 17:55:11;;;;;;;7.68;2.30;;;15.70;96.20;;;;;;6064941;23;20019;-72
2022/09/22 17:57:38;;;;;;;;;;;15.70;96.20;;;;;;6069058;23;20018;-72
2022/09/22 18:00:08;;;;;;;9.68;2.20;;;15.70;96.20;;;;;;6068508;23;19925;-72
2022/09/22 18:02:35;;;;;;;8.00;1.83;;;15.70;96.20;;;;;;6068914;23;20013;-72
2022/09/22 18:05:13;;;;;;;8.88;1.88;;;15.70;96.20;;;;;;6093223;23;20394;-72
2022/09/22 18:07:40;;;;;;;10.32;2.20;;;15.70;96.20;;;;;;6068759;23;20090;-72
2022/09/22 18:10:13;;;;;;;10.90;2.00;;;15.70;96.20;;;;;;6094282;23;20002;-72
2022/09/22 18:12:40;;;;;;;10.82;2.10;;;15.70;96.10;;;;;;6069057;23;20006;-72
2022/09/22 18:15:11;;;;;;;7.80;2.17;;;15.80;96.20;;;;;;6069081;23;20077;-72
2022/09/22 18:17:42;;;;;;;8.90;1.88;;;15.80;96.20;;;;;;6094629;23;20335;-72
2022/09/22 18:20:22;;;;;;;5.90;1.90;;;15.80;96.10;;;;;;6069326;23;20030;-72
2022/09/22 18:22:49;;;;;;;8.93;2.10;;;15.80;96.20;;;;;;6093831;23;20441;-72
2022/09/22 18:25:18;;;;;;;9.32;1.90;;;15.80;96.20;;;;;;6095387;23;20006;-72
2022/09/22 18:27:47;;;;;;;8.52;2.22;;;15.80;96.10;;;;;;6094038;23;20007;-72
2022/09/22 18:30:15;;;;;;;8.77;2.00;;;15.80;96.10;;;;;;6095071;23;20035;-72
2022/09/22 18:32:42;;;;;;;9.07;1.98;;;15.80;96.10;;;;;;6070154;23;20333;-72
2022/09/22 18:35:11;;;;;;;9.32;2.45;;;15.80;96.10;;;;;;6070430;23;20018;-72
2022/09/22 18:37:38;;;;;;;11.77;2.45;;;15.80;96.10;;;;;;6070433;23;20374;-72
2022/09/22 18:40:06;;;;;;;10.02;2.20;;;15.80;96.10;;;;;;6096384;23;20013;-72
2022/09/22 18:42:35;;;;;;;8.93;2.50;;;15.80;96.10;;;;;;6047064;23;20003;-72
2022/09/22 18:45:02;;;;;;;9.27;2.28;;;15.80;96.10;;;;;;6071229;23;20322;-72
2022/09/22 18:47:30;;;;;;;6.38;2.15;;;15.80;96.10;;;;;;6095744;23;20415;-72
2022/09/22 18:49:58;;;;;;;11.90;2.38;;;15.80;96.10;;;;;;6096088;23;20086;-72
2022/09/22 18:52:25;;;;;;;10.10;2.67;;;15.80;96.10;;;;;;6095799;23;20073;-72
2022/09/22 18:54:52;;;;;;;11.68;2.22;;;15.80;96.00;;;;;;6093970;23;20464;-72
2022/09/22 18:57:21;;;;;;;10.68;2.33;;;15.80;96.10;;;;;;6087663;23;20026;-72
2022/09/22 18:59:49;;;;;;;14.30;2.58;;;15.80;96.00;;;;;;6093531;23;20056;-72
2022/09/22 19:02:20;;;;;;;9.98;2.40;;;15.80;96.00;;;;;;6095316;23;20041;-72
2022/09/22 19:04:47;;;;;;;8.00;2.30;;;15.80;96.00;;;;;;6095526;23;20333;-72
2022/09/22 19:10:00;;;;;;;10.82;2.53;;;15.90;96.00;;;;;;6095436;23;20065;-72
2022/09/22 19:12:29;;;;;;;13.07;2.85;;;15.90;96.00;;;;;;6096309;23;20033;-72
2022/09/22 19:14:56;;;;;;;11.30;2.63;;;15.90;96.00;;;;;;6094631;23;20014;-73
2022/09/22 19:17:23;;;;;;;6.60;2.47;;;15.90;95.90;;;;;;6095066;23;20017;-72
2022/09/22 19:19:50;;;;;;;13.77;2.63;;;15.90;95.90;;;;;;6095402;23;20018;-72
2022/09/22 19:22:18;;;;;;;5.93;2.42;;;15.90;95.80;;;;;;6095261;23;19999;-73
2022/09/22 19:24:45;;;;;;;9.10;2.72;;;15.90;95.70;;;;;;6093315;23;20082;-72
2022/09/22 19:27:14;;;;;;;13.32;2.80;;;15.90;95.60;;;;;;6095419;23;20337;-72
2022/09/22 19:29:41;;;;;;;15.63;3.00;;;15.90;95.60;;;;;;6069860;23;20006;-72
2022/09/22 19:32:08;;;;;;;14.60;2.75;;;15.80;95.50;;;;;;6092928;23;20142;-73
2022/09/22 19:34:36;;;;;;;13.50;3.00;;;15.80;95.40;;;;;;6093488;23;20497;-72
2022/09/22 19:37:03;;;;;;;11.32;2.75;;;15.80;95.40;;;;;;6094965;23;20418;-75
2022/09/22 19:39:31;;;;;;;11.38;3.20;;;15.80;95.50;;;;;;6065808;23;20010;-70
2022/09/22 19:41:58;;;;;;;10.73;3.20;;;15.80;95.60;;;;;;6090411;23;20105;-71
2022/09/22 19:44:28;;;;;;;17.10;3.15;;;15.80;95.60;;;;;;6092283;23;20009;-71
2022/09/22 19:46:56;;;;;;;13.80;3.20;;;15.80;95.70;;;;;;6090692;23;20013;-71
2022/09/22 19:49:24;;;;;;;24.65;3.97;;;15.80;95.70;;;;;;6091116;23;20038;-71
2022/09/22 19:51:52;;;;;;;16.67;3.58;;;15.90;95.80;;;;;;6091129;23;20007;-71
2022/09/22 19:54:19;;;;;;;10.57;3.28;;;15.90;95.80;;;;;;6090629;23;20018;-71
2022/09/22 21:39:15;;;;;;;15.15;3.80;;;16.30;95.90;;;;;;6063476;23;20025;-72
2022/09/22 21:41:42;;;;;;;12.75;3.40;;;16.30;95.90;;;;;;6056088;23;20015;-70
2022/09/22 21:44:09;;;;;;;11.00;3.38;;;16.30;95.90;;;;;;6035581;23;20077;-71
2022/09/22 21:46:39;;;;;;;11.15;3.47;;;16.40;96.00;;;;;;6034220;23;20011;-69
2022/09/22 21:49:07;;;;;;;20.33;3.85;;;16.50;96.10;;;;;;6059026;23;20007;-71
2022/09/22 21:51:42;;;;;;;18.30;3.70;;;16.50;96.10;;;;;;6059560;23;20049;-70
2022/09/22 21:54:13;;;;;;;11.25;3.00;;;16.50;96.10;;;;;;6062116;23;20022;-69
2022/09/22 21:56:40;;;;;;;15.02;3.55;;;16.60;95.90;;;;;;6062330;23;20026;-70
2022/09/22 21:59:08;;;;;;;20.20;4.13;;;16.60;95.80;;;;;;6063331;23;20021;-70
2022/09/22 22:01:36;;;;;;;13.07;3.13;;;16.70;95.70;;;;;;6063666;23;20002;-71
2022/09/22 22:04:06;;;;;;;19.67;4.38;;;16.70;95.80;;;;;;6064037;23;20007;-70
2022/09/22 22:06:41;;;;;;;15.27;3.92;;;16.70;95.70;;;;;;6037786;23;19999;-70
2022/09/22 22:09:15;;;;;;;21.77;4.10;;;16.70;95.40;;;;;;6039139;23;20347;-69
2022/09/22 22:11:48;;;;;;;13.60;3.40;;;16.80;95.40;;;;;;6064233;23;20055;-71
2022/09/22 22:14:19;;;;;;;13.93;3.10;;;16.80;95.40;;;;;;6015868;23;20011;-68
2022/09/22 22:16:47;;;;;;;15.35;4.20;;;16.80;95.30;;;;;;6064031;23;20018;-69
2022/09/22 22:19:18;;;;;;;16.45;3.47;;;16.90;95.30;;;;;;6064261;23;20086;-68
2022/09/22 22:21:46;;;;;;;16.27;3.20;;;16.90;95.40;;;;;;6064756;23;20017;-68
2022/09/22 22:26:50;;;;;;;14.13;2.67;;;17.10;95.50;;;;;;6063949;23;20021;-68
2022/09/22 22:29:18;;;;;;;13.20;3.03;;;17.10;95.40;;;;;;6064274;23;20014;-69
2022/09/22 22:31:47;;;;;;;12.90;2.50;;;17.20;95.40;;;;;;6063441;23;20042;-69
2022/09/22 22:34:15;;;;;;;12.65;2.85;;;17.20;95.40;;;;;;6063834;23;20034;-69
2022/09/22 22:36:43;;;;;;;14.15;2.63;;;17.20;95.40;;;;;;6065204;23;20003;-70
